createdAt,value
2022-08-11T00:00:18.213Z,16.66
2022-08-11T00:03:20.987Z,16.61
2022-08-11T00:06:39.369Z,16.59
2022-08-11T00:09:41.912Z,16.59
2022-08-11T00:12:45.256Z,16.58
2022-08-11T00:15:48.664Z,16.56
2022-08-11T00:18:54.293Z,16.50
2022-08-11T00:22:05.119Z,16.43
2022-08-11T00:25:20.074Z,16.36
2022-08-11T00:28:34.639Z,16.28
2022-08-11T00:31:37.876Z,16.22
2022-08-11T00:34:44.470Z,16.15
2022-08-11T00:37:50.682Z,16.08
2022-08-11T00:40:59.570Z,16.01
2022-08-11T00:44:22.514Z,15.94
2022-08-11T00:47:36.417Z,15.86
2022-08-11T00:51:02.337Z,15.75
2022-08-11T00:54:22.207Z,15.63
2022-08-11T00:57:38.439Z,15.56
2022-08-11T01:01:16.233Z,15.50
2022-08-11T01:04:33.165Z,15.49
2022-08-11T01:08:01.979Z,15.47
2022-08-11T01:11:19.942Z,15.52
2022-08-11T01:14:40.439Z,15.55
2022-08-11T01:18:02.227Z,15.56
2022-08-11T01:21:28.316Z,15.55
2022-08-11T01:25:08.977Z,15.53
2022-08-11T01:28:46.658Z,15.52
2022-08-11T01:32:13.012Z,15.46
2022-08-11T01:35:37.335Z,15.45
2022-08-11T01:38:51.154Z,15.42
2022-08-11T01:42:37.853Z,15.41
2022-08-11T01:45:54.577Z,15.37
2022-08-11T01:50:06.445Z,15.36
2022-08-11T01:53:12.808Z,15.32
2022-08-11T01:56:38.239Z,15.29
2022-08-11T01:59:49.426Z,15.26
2022-08-11T02:03:12.666Z,15.23
2022-08-11T02:06:49.412Z,15.18
2022-08-11T02:10:35.379Z,15.08
2022-08-11T02:13:41.016Z,14.97
2022-08-11T02:17:02.591Z,14.86
2022-08-11T02:20:33.519Z,14.79
2022-08-11T02:24:05.420Z,14.71
2022-08-11T02:27:19.849Z,14.66
2022-08-11T02:30:25.858Z,14.63
2022-08-11T02:33:34.513Z,14.62
2022-08-11T02:37:32.175Z,14.61
2022-08-11T02:40:47.784Z,14.58
2022-08-11T02:44:23.546Z,14.52
2022-08-11T02:48:09.449Z,14.48
2022-08-11T02:51:44.278Z,14.41
2022-08-11T02:55:06.938Z,14.39
2022-08-11T02:58:22.049Z,14.38
2022-08-11T03:01:49.309Z,14.36
2022-08-11T03:05:12.695Z,14.35
2022-08-11T03:08:35.984Z,14.34
2022-08-11T03:12:15.059Z,14.34
2022-08-11T03:15:41.014Z,14.33
2022-08-11T03:19:03.339Z,14.33
2022-08-11T03:22:49.873Z,14.28
2022-08-11T03:25:58.388Z,14.21
2022-08-11T03:29:18.463Z,14.14
2022-08-11T03:32:32.900Z,14.11
2022-08-11T03:35:43.102Z,14.11
2022-08-11T03:39:09.123Z,14.09
2022-08-11T03:42:28.215Z,14.08
2022-08-11T03:45:57.305Z,14.05
2022-08-11T03:49:08.352Z,14.06
2022-08-11T03:52:38.319Z,14.03
2022-08-11T03:56:11.546Z,14.01
2022-08-11T03:59:56.477Z,14.01
2022-08-11T04:03:07.984Z,13.99
2022-08-11T04:06:23.626Z,13.96
2022-08-11T04:09:46.965Z,13.92
2022-08-11T04:12:57.697Z,13.85
2022-08-11T04:16:29.790Z,13.82
2022-08-11T04:19:51.388Z,13.80
2022-08-11T04:24:36.133Z,13.79
2022-08-11T04:26:39.208Z,13.79
2022-08-11T04:30:03.738Z,13.79
2022-08-11T04:33:12.784Z,13.81
2022-08-11T04:36:46.119Z,13.78
2022-08-11T04:40:00.721Z,13.78
2022-08-11T04:44:02.486Z,13.79
2022-08-11T04:47:09.667Z,13.77
2022-08-11T04:51:08.771Z,13.79
2022-08-11T04:54:45.328Z,13.78
2022-08-11T04:58:09.853Z,13.80
2022-08-11T05:01:43.428Z,13.83
2022-08-11T05:05:33.683Z,13.89
2022-08-11T05:08:59.880Z,13.94
2022-08-11T05:12:13.557Z,13.98
2022-08-11T05:15:43.118Z,14.04
2022-08-11T05:19:12.189Z,14.09
2022-08-11T05:22:38.311Z,14.13
2022-08-11T05:26:44.063Z,14.17
2022-08-11T05:30:05.707Z,14.22
2022-08-11T05:33:31.103Z,14.27
2022-08-11T05:36:46.893Z,14.32
2022-08-11T05:40:09.613Z,14.36
2022-08-11T05:43:32.111Z,14.46
2022-08-11T05:47:00.981Z,14.72
2022-08-11T05:50:31.023Z,14.87
2022-08-11T05:53:53.540Z,14.98
2022-08-11T05:56:58.657Z,15.08
2022-08-11T06:00:10.494Z,15.18
2022-08-11T06:03:25.472Z,15.27
2022-08-11T06:06:29.129Z,15.37
2022-08-11T06:09:38.460Z,15.46
2022-08-11T06:12:43.344Z,15.55
2022-08-11T06:15:49.917Z,15.65
2022-08-11T06:18:52.075Z,15.75
2022-08-11T06:21:54.505Z,15.85
2022-08-11T06:25:01.631Z,15.95
2022-08-11T06:28:07.859Z,16.04
2022-08-11T06:31:19.823Z,16.14
2022-08-11T06:34:35.416Z,16.27
2022-08-11T06:37:59.173Z,16.44
2022-08-11T06:41:33.199Z,16.63
2022-08-11T06:47:47.815Z,16.85
2022-08-11T06:51:11.162Z,16.97
2022-08-11T06:54:15.049Z,17.13
2022-08-11T06:57:38.124Z,17.21
2022-08-11T07:00:41.535Z,17.28
2022-08-11T07:03:54.610Z,17.36
2022-08-11T07:07:28.485Z,17.43
2022-08-11T07:11:07.036Z,17.51
2022-08-11T07:14:31.926Z,17.58
2022-08-11T07:17:42.890Z,17.71
2022-08-11T07:22:01.922Z,17.79
2022-08-11T07:25:01.377Z,17.92
2022-08-11T07:28:29.953Z,18.01
2022-08-11T07:31:46.310Z,18.10
2022-08-11T07:34:53.281Z,18.20
2022-08-11T07:38:02.309Z,18.29
2022-08-11T07:41:05.310Z,18.39
2022-08-11T07:44:11.666Z,18.49
2022-08-11T07:47:33.100Z,18.61
2022-08-11T07:50:56.236Z,18.75
2022-08-11T07:54:16.298Z,18.85
2022-08-11T07:58:12.743Z,18.96
2022-08-11T08:01:21.954Z,19.07
2022-08-11T08:04:47.255Z,19.19
2022-08-11T08:08:07.903Z,19.31
2022-08-11T08:11:28.487Z,19.46
2022-08-11T08:14:49.832Z,19.61
2022-08-11T08:18:09.886Z,19.78
2022-08-11T08:21:19.229Z,19.95
2022-08-11T08:24:21.730Z,20.11
2022-08-11T08:27:25.856Z,20.24
2022-08-11T08:30:50.524Z,20.35
2022-08-11T08:33:52.723Z,20.45
2022-08-11T08:36:54.460Z,20.53
2022-08-11T08:39:58.637Z,20.62
2022-08-11T08:43:08.301Z,20.73
2022-08-11T08:46:12.297Z,20.81
2022-08-11T08:49:22.631Z,20.90
2022-08-11T08:52:42.707Z,21.00
2022-08-11T08:55:46.858Z,21.09
2022-08-11T08:58:49.801Z,21.17
2022-08-11T09:01:59.274Z,21.24
2022-08-11T09:05:02.748Z,21.32
2022-08-11T09:08:05.612Z,21.39
2022-08-11T09:11:25.829Z,21.46
2022-08-11T09:14:53.045Z,21.53
2022-08-11T09:18:01.428Z,21.62
2022-08-11T09:21:04.596Z,21.71
2022-08-11T09:24:26.516Z,21.78
2022-08-11T09:27:28.650Z,21.85
2022-08-11T09:30:31.875Z,21.93
2022-08-11T09:33:36.299Z,22.02
2022-08-11T09:36:59.305Z,22.12
2022-08-11T09:40:20.592Z,22.24
2022-08-11T09:43:42.873Z,22.39
2022-08-11T09:46:44.913Z,22.54
2022-08-11T09:49:48.942Z,22.69
2022-08-11T09:53:34.618Z,22.84
2022-08-11T09:56:36.389Z,23.03
2022-08-11T09:59:38.671Z,23.18
2022-08-11T10:02:44.535Z,23.39
2022-08-11T10:06:11.904Z,23.59
2022-08-11T10:09:18.765Z,23.77
2022-08-11T10:12:24.776Z,23.92
2022-08-11T10:15:34.224Z,24.07
2022-08-11T10:18:49.621Z,24.26
2022-08-11T10:22:12.709Z,24.45
2022-08-11T10:25:33.904Z,24.60
2022-08-11T10:28:55.615Z,24.70
2022-08-11T10:32:17.344Z,24.82
2022-08-11T10:35:26.299Z,24.95
2022-08-11T10:38:30.117Z,25.01
2022-08-11T10:42:03.437Z,25.09
2022-08-11T10:45:30.672Z,25.24
2022-08-11T10:48:38.073Z,25.45
2022-08-11T10:51:59.507Z,25.64
2022-08-11T10:55:19.919Z,25.85
2022-08-11T10:58:41.841Z,26.03
2022-08-11T11:01:45.522Z,26.06
2022-08-11T11:04:59.512Z,26.12
2022-08-11T11:08:33.095Z,26.22
2022-08-11T11:12:01.344Z,26.35
2022-08-11T11:15:23.065Z,26.48
2022-08-11T11:18:28.818Z,26.67
2022-08-11T11:21:32.265Z,26.86
2022-08-11T11:24:52.787Z,26.96
2022-08-11T11:28:13.544Z,27.02
2022-08-11T11:31:42.909Z,27.09
2022-08-11T11:34:59.897Z,27.12
2022-08-11T11:38:05.014Z,27.14
2022-08-11T11:41:27.919Z,27.21
2022-08-11T11:44:30.111Z,27.19
2022-08-11T11:47:33.261Z,27.27
2022-08-11T11:50:37.792Z,27.31
2022-08-11T11:53:44.116Z,27.30
2022-08-11T11:56:46.309Z,27.27
2022-08-11T12:00:11.267Z,27.25
2022-08-11T12:03:13.577Z,27.32
2022-08-11T12:06:17.728Z,27.50
2022-08-11T12:09:23.272Z,27.60
2022-08-11T12:12:45.080Z,27.65
2022-08-11T12:16:31.289Z,27.65
2022-08-11T12:19:15.731Z,27.66
2022-08-11T12:22:37.105Z,27.82
2022-08-11T12:26:23.328Z,27.91
2022-08-11T12:29:27.191Z,28.00
2022-08-11T12:32:35.026Z,28.11
2022-08-11T12:35:37.358Z,28.18
2022-08-11T12:38:39.165Z,28.24
2022-08-11T12:42:01.884Z,28.30
2022-08-11T12:45:27.601Z,28.34
2022-08-11T12:48:58.679Z,28.25
2022-08-11T12:52:14.342Z,28.27
2022-08-11T12:55:41.639Z,28.23
2022-08-11T12:58:45.448Z,28.11
2022-08-11T13:02:06.581Z,28.05
2022-08-11T13:05:15.837Z,27.98
2022-08-11T13:08:18.166Z,27.97
2022-08-11T13:11:54.961Z,27.97
2022-08-11T13:15:00.525Z,28.02
2022-08-11T13:18:05.241Z,28.04
2022-08-11T13:21:06.948Z,28.12
2022-08-11T13:24:09.065Z,28.23
2022-08-11T13:27:12.468Z,28.25
2022-08-11T13:30:39.101Z,28.22
2022-08-11T13:33:47.373Z,28.21
2022-08-11T13:36:53.724Z,28.25
2022-08-11T13:39:55.402Z,28.25
2022-08-11T13:42:59.108Z,28.28
2022-08-11T13:46:21.494Z,28.33
2022-08-11T13:49:25.117Z,28.41
2022-08-11T13:52:30.880Z,28.45
2022-08-11T13:55:36.525Z,28.43
2022-08-11T13:58:56.111Z,28.43
2022-08-11T14:02:21.850Z,28.43
2022-08-11T14:05:34.030Z,28.43
2022-08-11T14:08:40.207Z,28.36
2022-08-11T14:12:21.920Z,28.29
2022-08-11T14:15:35.756Z,28.23
2022-08-11T14:18:43.025Z,28.34
2022-08-11T14:22:07.591Z,28.45
2022-08-11T14:25:12.377Z,28.54
2022-08-11T14:28:30.387Z,28.48
2022-08-11T14:31:38.154Z,28.31
2022-08-11T14:34:44.469Z,28.25
2022-08-11T14:37:47.101Z,28.28
2022-08-11T14:41:08.165Z,28.21
2022-08-11T14:44:30.197Z,28.20
2022-08-11T14:47:35.304Z,28.23
2022-08-11T14:50:37.720Z,28.20
2022-08-11T14:53:40.604Z,28.30
2022-08-11T14:57:00.676Z,28.37
2022-08-11T15:00:07.913Z,28.43
2022-08-11T15:03:13.549Z,28.33
2022-08-11T15:06:15.851Z,28.23
2022-08-11T15:09:18.383Z,28.27
2022-08-11T15:12:32.325Z,28.29
2022-08-11T15:15:54.173Z,28.33
2022-08-11T15:18:57.896Z,28.29
2022-08-11T15:22:18.458Z,28.16
2022-08-11T15:25:20.971Z,28.18
2022-08-11T15:28:43.309Z,28.24
2022-08-11T15:32:03.353Z,28.20
2022-08-11T15:35:24.330Z,28.13
2022-08-11T15:38:28.216Z,28.11
2022-08-11T15:42:27.433Z,28.02
2022-08-11T15:45:49.205Z,27.95
2022-08-11T15:48:58.001Z,27.88
2022-08-11T15:52:06.754Z,27.81
2022-08-11T15:55:09.500Z,27.73
2022-08-11T15:58:31.664Z,27.69
2022-08-11T16:01:54.278Z,27.62
2022-08-11T16:04:58.392Z,27.58
2022-08-11T16:08:01.063Z,27.55
2022-08-11T16:11:08.807Z,27.53
2022-08-11T16:14:31.461Z,27.48
2022-08-11T16:17:37.878Z,27.42
2022-08-11T16:20:40.391Z,27.36
2022-08-11T16:23:46.647Z,27.28
2022-08-11T16:27:07.906Z,27.22
2022-08-11T16:30:11.789Z,27.19
2022-08-11T16:33:48.080Z,27.21
2022-08-11T16:36:55.705Z,27.20
2022-08-11T16:39:57.485Z,27.19
2022-08-11T16:43:19.762Z,27.21
2022-08-11T16:46:37.849Z,27.17
2022-08-11T16:49:52.795Z,27.15
2022-08-11T16:52:54.730Z,27.10
2022-08-11T16:55:58.732Z,27.04
2022-08-11T16:59:16.345Z,26.98
2022-08-11T17:02:40.370Z,26.94
2022-08-11T17:06:10.205Z,26.91
2022-08-11T17:09:35.245Z,26.86
2022-08-11T17:12:58.735Z,26.80
2022-08-11T17:16:09.249Z,26.74
2022-08-11T17:20:41.983Z,26.69
2022-08-11T17:23:08.472Z,26.67
2022-08-11T17:26:55.559Z,26.65
2022-08-11T17:30:00.859Z,26.58
2022-08-11T17:33:21.373Z,26.55
2022-08-11T17:36:24.194Z,26.51
2022-08-11T17:39:31.782Z,26.45
2022-08-11T17:42:54.525Z,26.39
2022-08-11T17:46:16.157Z,26.35
2022-08-11T17:49:20.430Z,26.31
2022-08-11T17:52:43.333Z,26.28
2022-08-11T17:56:24.574Z,26.20
2022-08-11T17:59:49.340Z,26.12
2022-08-11T18:03:11.683Z,26.09
2022-08-11T18:06:15.432Z,26.06
2022-08-11T18:09:40.027Z,25.99
2022-08-11T18:13:01.600Z,25.89
2022-08-11T18:16:21.923Z,25.76
2022-08-11T18:19:42.387Z,25.64
2022-08-11T18:23:04.848Z,25.56
2022-08-11T18:26:25.898Z,25.48
2022-08-11T18:29:47.952Z,25.40
2022-08-11T18:33:44.922Z,25.35
2022-08-11T18:36:59.158Z,25.23
2022-08-11T18:40:26.186Z,25.15
2022-08-11T18:43:48.297Z,25.07
2022-08-11T18:47:09.987Z,24.99
2022-08-11T18:50:39.432Z,24.94
2022-08-11T18:54:05.109Z,24.89
2022-08-11T18:57:26.659Z,24.84
2022-08-11T19:00:47.393Z,24.79
2022-08-11T19:04:11.927Z,24.88
2022-08-11T19:07:39.625Z,24.77
2022-08-11T19:11:03.772Z,24.71
2022-08-11T19:14:25.089Z,24.63
2022-08-11T19:17:48.522Z,24.53
2022-08-11T19:21:10.808Z,24.41
2022-08-11T19:24:32.676Z,24.31
2022-08-11T19:27:53.716Z,24.23
2022-08-11T19:31:15.053Z,24.17
2022-08-11T19:34:37.387Z,24.12
2022-08-11T19:37:58.766Z,24.06
2022-08-11T19:41:57.682Z,24.03
2022-08-11T19:45:00.322Z,24.00
2022-08-11T19:48:31.824Z,23.93
2022-08-11T19:51:54.777Z,23.87
2022-08-11T19:55:16.340Z,23.83
2022-08-11T19:58:37.369Z,23.76
2022-08-11T20:02:12.931Z,23.67
2022-08-11T20:05:34.689Z,23.58
2022-08-11T20:08:59.121Z,23.52
2022-08-11T20:12:24.191Z,23.49
2022-08-11T20:15:45.663Z,23.44
2022-08-11T20:19:08.408Z,23.36
2022-08-11T20:22:30.345Z,23.28
2022-08-11T20:25:53.136Z,23.22
2022-08-11T20:29:16.852Z,23.15
2022-08-11T20:32:37.336Z,23.06
2022-08-11T20:35:58.470Z,22.98
2022-08-11T20:39:19.535Z,22.86
2022-08-11T20:42:42.026Z,22.78
2022-08-11T20:46:03.021Z,22.70
2022-08-11T20:49:24.864Z,22.66
2022-08-11T20:52:48.049Z,22.64
2022-08-11T20:56:09.120Z,22.56
2022-08-11T20:59:50.097Z,22.50
2022-08-11T21:03:14.204Z,22.45
2022-08-11T21:06:55.892Z,22.35
2022-08-11T21:10:23.693Z,22.21
2022-08-11T21:13:52.712Z,22.09
2022-08-11T21:17:27.687Z,21.92
2022-08-11T21:20:51.124Z,21.79
2022-08-11T21:24:13.518Z,21.69
2022-08-11T21:27:38.757Z,21.60
2022-08-11T21:30:59.455Z,21.61
2022-08-11T21:34:21.353Z,21.59
2022-08-11T21:37:43.960Z,21.53
2022-08-11T21:41:05.651Z,21.48
2022-08-11T21:44:27.617Z,21.43
2022-08-11T21:48:01.210Z,21.36
2022-08-11T21:51:22.053Z,21.25
2022-08-11T21:54:43.689Z,21.20
2022-08-11T21:58:04.928Z,21.13
2022-08-11T22:01:27.668Z,21.06
2022-08-11T22:04:55.502Z,21.01
2022-08-11T22:08:15.896Z,20.97
2022-08-11T22:11:36.435Z,20.91
2022-08-11T22:14:57.072Z,20.83
2022-08-11T22:18:20.243Z,21.10
2022-08-11T22:22:03.447Z,20.90
2022-08-11T22:25:23.175Z,20.68
2022-08-11T22:28:43.592Z,20.51
2022-08-11T22:32:04.163Z,20.45
2022-08-11T22:35:28.523Z,20.33
2022-08-11T22:38:52.480Z,20.16
2022-08-11T22:42:12.729Z,20.08
2022-08-11T22:45:33.288Z,19.95
2022-08-11T22:48:55.438Z,19.79
2022-08-11T22:52:17.849Z,19.60
2022-08-11T22:55:39.385Z,19.40
2022-08-11T22:59:00.149Z,19.24
2022-08-11T23:02:21.877Z,19.11
2022-08-11T23:05:44.304Z,19.01
2022-08-11T23:09:05.221Z,18.89
2022-08-11T23:12:26.551Z,18.79
2022-08-11T23:15:48.330Z,18.67
2022-08-11T23:19:09.607Z,18.54
2022-08-11T23:22:37.169Z,18.46
2022-08-11T23:26:12.505Z,18.34
2022-08-11T23:29:33.915Z,18.26
2022-08-11T23:32:56.013Z,18.18
2022-08-11T23:36:35.796Z,18.10
2022-08-11T23:39:57.192Z,18.04
2022-08-11T23:43:17.545Z,17.96
2022-08-11T23:46:44.264Z,17.88
2022-08-11T23:50:06.793Z,17.77
2022-08-11T23:53:28.533Z,17.66
2022-08-11T23:56:48.925Z,17.60
